Yechon Air Base, South Korea

7:12 AM KST on September 17, 2014 (GMT +0900)
Chongju International | Change Station
CLOSE
Current Station
Airport
Location: Cheongju AB,
Elevation: 190 ft
Nearby Weather Stations

Elev 190 ft 36.72 °N, 127.50 °E | Updated 12 minutes ago

Clear
Clear
61 °F
Feels Like 61 °F
N
2
Wind Variable Wind from NW

Today
High -- | Low -- °F
--% Chance of Precip.
Yesterday
High -- | Low -- °F
Precip. -- in
6:10 AM 6:31 PM
Last Quarter, 42% visible
Pressure 30.01 in
Visibility -9999.0 miles
Clouds
Dew Point 57 °F
Humidity 88%
Rainfall 0.00 in
Snow Depth Not available.
UV Not available.
Pollen Not available.
Air Quality Not available.
Flu Activity Not available.
METAR RKTU 162200Z 31002KT CAVOK 16/14 Q1016 NOSIG

More Conditions Fewer Conditions

Pressure 30.01 in
Visibility -9999.0 miles
Clouds
Dew Point 57 °F
Humidity 88%
Rainfall 0.00 in
Snow Depth Not available.
UV Not available.
Pollen Not available.
Air Quality Not available.
Flu Activity Not available.
METAR RKTU 162200Z 31002KT CAVOK 16/14 Q1016 NOSIG

More Conditions Fewer Conditions

10-Day Weather Forecast

Almanac

Astronomy

Sep. 17, 2014 Rise Set
Actual Time 6:10 AM KST 6:31 PM KST
Civil Twilight 5:44 AM KST 6:57 PM KST
Nautical Twilight 5:13 AM KST 7:28 PM KST
Astronomical Twilight 4:42 AM KST 7:58 PM KST
Moon No Moon Rise 2:07 PM KST (9/17)
Length of Visible Light 13h 13m
Length of Day
12h 21m
Tomorrow will be 2m 17s shorter.
Last Quarter, 42% of the Moon is Illuminated
Sep 16
Last Quarter
Sep 24
New
Oct 1
First Quarter
Oct 8
Full
Oct 15
Last Quarter

Yesterday's Extremes

Country Highs Country Lows

Community

WunderPhotos

Upload Photos

1,753,894 photos uploaded!

Nearby

Snow Depth

Not available.

Earthquake Activity

City Distance Mag. Time & Date
No recent earthquake activity has been reported nearby.
Minimum magnitude displayed is 2.5.

Coastal Water Temperatures

Place Temperature
No Stations Reporting

Nearby Weather Stations